createdAt,value
2019-03-29T00:00:59.172Z,0.00
2019-03-29T00:01:59.021Z,0.00
2019-03-29T00:02:58.998Z,0.00
2019-03-29T00:03:59.012Z,0.00
2019-03-29T00:04:58.977Z,0.00
2019-03-29T00:05:58.966Z,0.00
2019-03-29T00:06:58.957Z,0.00
2019-03-29T00:07:58.944Z,0.00
2019-03-29T00:08:58.969Z,0.00
2019-03-29T00:09:58.930Z,0.00
2019-03-29T00:10:58.915Z,0.00
2019-03-29T00:11:58.899Z,0.00
2019-03-29T00:12:58.892Z,0.00
2019-03-29T00:13:58.877Z,0.00
2019-03-29T00:14:58.889Z,0.00
2019-03-29T00:15:59.988Z,0.00
2019-03-29T00:16:58.848Z,0.00
2019-03-29T00:17:58.836Z,0.00
2019-03-29T00:18:58.822Z,0.00
2019-03-29T00:19:58.838Z,0.00
2019-03-29T00:20:58.798Z,0.00
2019-03-29T00:21:58.789Z,0.00
2019-03-29T00:22:58.783Z,0.00
2019-03-29T00:24:06.716Z,0.00
2019-03-29T00:24:59.782Z,0.00
2019-03-29T00:25:59.118Z,0.00
2019-03-29T00:26:58.734Z,0.00
2019-03-29T00:27:58.722Z,0.00
2019-03-29T00:28:58.713Z,0.00
2019-03-29T00:29:58.730Z,0.00
2019-03-29T00:30:58.693Z,0.00
2019-03-29T00:31:58.682Z,0.00
2019-03-29T00:32:58.669Z,0.00
2019-03-29T00:33:58.658Z,0.00
2019-03-29T00:34:58.669Z,0.00
2019-03-29T00:35:59.229Z,0.00
2019-03-29T00:36:58.640Z,0.00
2019-03-29T00:37:58.611Z,0.00
2019-03-29T00:38:58.601Z,0.00
2019-03-29T00:39:58.628Z,0.00
2019-03-29T00:40:59.008Z,0.00
2019-03-29T00:41:58.566Z,0.00
2019-03-29T00:42:58.559Z,0.00
2019-03-29T00:43:58.547Z,0.00
2019-03-29T00:44:58.534Z,0.00
2019-03-29T00:45:58.546Z,0.00
2019-03-29T00:46:58.511Z,0.00
2019-03-29T00:47:58.504Z,0.00
2019-03-29T00:48:58.490Z,0.00
2019-03-29T00:49:58.483Z,0.00
2019-03-29T00:50:59.113Z,0.00
2019-03-29T00:51:58.456Z,0.00
2019-03-29T00:52:58.446Z,0.00
2019-03-29T00:53:58.438Z,0.00
2019-03-29T00:54:58.425Z,0.00
2019-03-29T00:55:58.435Z,0.00
2019-03-29T00:56:58.398Z,0.00
2019-03-29T00:57:58.391Z,0.00
2019-03-29T00:58:58.377Z,0.00
2019-03-29T00:59:58.369Z,0.00
2019-03-29T01:00:58.384Z,0.00
2019-03-29T01:01:58.349Z,0.00
2019-03-29T01:02:58.336Z,0.00
2019-03-29T01:03:58.327Z,0.00
2019-03-29T01:04:58.314Z,0.00
2019-03-29T01:05:58.324Z,0.00
2019-03-29T01:06:58.288Z,0.00
2019-03-29T01:08:07.848Z,0.00
2019-03-29T01:08:59.266Z,0.00
2019-03-29T01:09:58.260Z,0.00
2019-03-29T01:10:58.268Z,0.00
2019-03-29T01:11:58.233Z,0.00
2019-03-29T01:12:58.895Z,0.00
2019-03-29T01:13:58.213Z,0.00
2019-03-29T01:14:58.209Z,0.00
2019-03-29T01:15:58.215Z,0.00
2019-03-29T01:16:58.179Z,0.00
2019-03-29T01:17:58.171Z,0.00
2019-03-29T01:18:58.160Z,0.00
2019-03-29T01:19:58.151Z,0.00
2019-03-29T01:20:58.166Z,0.00
2019-03-29T01:21:58.126Z,0.00
2019-03-29T01:22:58.204Z,0.00
2019-03-29T01:23:58.106Z,0.00
2019-03-29T01:24:58.096Z,0.00
2019-03-29T01:25:58.118Z,0.00
2019-03-29T01:26:58.068Z,0.00
2019-03-29T01:27:58.060Z,0.00
2019-03-29T01:28:58.052Z,0.00
2019-03-29T01:29:58.037Z,0.00
2019-03-29T01:30:58.029Z,0.00
2019-03-29T01:31:58.035Z,0.00
2019-03-29T01:32:58.922Z,0.00
2019-03-29T01:33:57.990Z,0.00
2019-03-29T01:34:57.979Z,0.00
2019-03-29T01:35:57.972Z,0.00
2019-03-29T01:36:57.981Z,0.00
2019-03-29T01:37:57.950Z,0.00
2019-03-29T01:38:57.941Z,0.00
2019-03-29T01:39:57.927Z,0.00
2019-03-29T01:40:57.917Z,0.00
2019-03-29T01:41:57.926Z,0.00
2019-03-29T01:42:57.891Z,0.00
2019-03-29T01:43:57.965Z,0.00
2019-03-29T01:44:57.888Z,0.00
2019-03-29T01:45:57.859Z,0.00
2019-03-29T01:46:57.875Z,0.00
2019-03-29T01:47:57.836Z,0.00
2019-03-29T01:48:57.828Z,0.00
2019-03-29T01:49:57.820Z,0.00
2019-03-29T01:50:57.803Z,0.00
2019-03-29T01:51:57.822Z,0.00
2019-03-29T01:52:57.786Z,0.00
2019-03-29T01:53:57.772Z,0.00
2019-03-29T01:54:57.762Z,0.00
2019-03-29T01:55:57.751Z,0.00
2019-03-29T01:56:57.762Z,0.00
2019-03-29T01:57:58.954Z,0.00
2019-03-29T01:58:57.722Z,0.00
2019-03-29T01:59:57.704Z,0.00
2019-03-29T02:00:57.695Z,0.00
2019-03-29T02:01:57.706Z,0.00
2019-03-29T02:02:57.675Z,0.00
2019-03-29T02:03:57.667Z,0.00
2019-03-29T02:04:57.652Z,0.00
2019-03-29T02:05:57.642Z,0.00
2019-03-29T02:06:57.663Z,0.00
2019-03-29T02:07:57.619Z,0.00
2019-03-29T02:08:57.608Z,0.00
2019-03-29T02:09:57.594Z,0.00
2019-03-29T02:10:57.585Z,0.00
2019-03-29T02:11:57.595Z,0.00
2019-03-29T02:12:57.563Z,0.00
2019-03-29T02:13:57.560Z,0.00
2019-03-29T02:14:57.543Z,0.00
2019-03-29T02:15:57.531Z,0.00
2019-03-29T02:16:57.554Z,0.00
2019-03-29T02:17:57.509Z,0.00
2019-03-29T02:18:57.497Z,0.00
2019-03-29T02:19:58.133Z,0.00
2019-03-29T02:20:57.477Z,0.00
2019-03-29T02:21:57.466Z,0.00
2019-03-29T02:22:57.475Z,0.00
2019-03-29T02:23:57.442Z,0.00
2019-03-29T02:24:57.437Z,0.00
2019-03-29T02:25:57.422Z,0.00
2019-03-29T02:26:57.409Z,0.00
2019-03-29T02:27:57.420Z,0.00
2019-03-29T02:28:57.387Z,0.00
2019-03-29T02:29:57.382Z,0.00
2019-03-29T02:30:57.545Z,0.00
2019-03-29T02:31:57.356Z,0.00
2019-03-29T02:32:57.364Z,0.00
2019-03-29T02:33:57.335Z,0.00
2019-03-29T02:34:57.324Z,0.00
2019-03-29T02:35:57.314Z,0.00
2019-03-29T02:36:57.310Z,0.00
2019-03-29T02:37:57.314Z,0.00
2019-03-29T02:38:58.979Z,0.00
2019-03-29T02:39:57.267Z,0.00
2019-03-29T02:40:57.255Z,0.00
2019-03-29T02:41:57.274Z,0.00
2019-03-29T02:42:57.256Z,0.00
2019-03-29T02:43:57.224Z,0.00
2019-03-29T02:44:57.214Z,0.00
2019-03-29T02:45:57.798Z,0.00
2019-03-29T02:46:57.189Z,0.00
2019-03-29T02:47:57.200Z,0.00
2019-03-29T02:48:57.175Z,0.00
2019-03-29T02:49:57.162Z,0.00
2019-03-29T02:50:57.152Z,0.00
2019-03-29T02:51:57.133Z,0.00
2019-03-29T02:52:57.148Z,0.00
2019-03-29T02:53:57.114Z,0.00
2019-03-29T02:54:57.100Z,0.00
2019-03-29T02:55:57.097Z,0.00
2019-03-29T02:56:57.082Z,0.00
2019-03-29T02:57:57.093Z,0.00
2019-03-29T02:58:57.060Z,0.00
2019-03-29T02:59:57.062Z,0.00
2019-03-29T03:00:57.038Z,0.00
2019-03-29T03:01:57.027Z,0.00
2019-03-29T03:02:57.050Z,0.00
2019-03-29T03:03:57.005Z,0.00
2019-03-29T03:04:56.992Z,0.00
2019-03-29T03:05:56.988Z,0.00
2019-03-29T03:06:56.974Z,0.00
2019-03-29T03:07:56.993Z,0.00
2019-03-29T03:09:12.329Z,0.00
2019-03-29T03:09:57.939Z,0.00
2019-03-29T03:10:56.925Z,0.00
2019-03-29T03:11:56.919Z,0.00
2019-03-29T03:12:57.047Z,0.00
2019-03-29T03:13:56.897Z,0.00
2019-03-29T03:14:56.889Z,0.00
2019-03-29T03:15:56.882Z,0.00
2019-03-29T03:16:56.865Z,0.00
2019-03-29T03:17:56.857Z,0.00
2019-03-29T03:18:56.871Z,0.00
2019-03-29T03:19:56.831Z,0.00
2019-03-29T03:20:56.818Z,0.00
2019-03-29T03:21:56.808Z,0.00
2019-03-29T03:22:56.796Z,0.00
2019-03-29T03:23:56.828Z,0.00
2019-03-29T03:24:56.777Z,0.00
2019-03-29T03:25:56.798Z,0.00
2019-03-29T03:26:56.753Z,0.00
2019-03-29T03:27:56.749Z,0.00
2019-03-29T03:28:56.753Z,0.00
2019-03-29T03:29:56.719Z,0.00
2019-03-29T03:30:56.716Z,0.00
2019-03-29T03:31:56.708Z,0.00
2019-03-29T03:32:56.690Z,0.00
2019-03-29T03:33:56.710Z,0.00
2019-03-29T03:34:56.667Z,0.00
2019-03-29T03:35:56.671Z,0.00
2019-03-29T03:36:56.644Z,0.00
2019-03-29T03:37:56.632Z,0.00
2019-03-29T03:38:56.655Z,0.00
2019-03-29T03:39:56.610Z,0.00
2019-03-29T03:40:56.612Z,0.00
2019-03-29T03:41:56.586Z,0.00
2019-03-29T03:42:56.601Z,0.00
2019-03-29T03:43:56.580Z,0.00
2019-03-29T03:44:56.599Z,0.00
2019-03-29T03:45:56.542Z,0.00
2019-03-29T03:46:56.533Z,0.00
2019-03-29T03:47:56.522Z,0.00
2019-03-29T03:48:56.512Z,0.00
2019-03-29T03:50:00.662Z,0.00
2019-03-29T03:50:56.488Z,0.00
2019-03-29T03:51:56.481Z,0.00
2019-03-29T03:52:56.477Z,0.00
2019-03-29T03:53:56.457Z,0.00
2019-03-29T03:54:56.466Z,0.00
2019-03-29T03:55:56.440Z,0.00
2019-03-29T03:56:56.426Z,0.00
2019-03-29T03:57:57.990Z,0.00
2019-03-29T03:58:56.402Z,0.00
2019-03-29T03:59:56.413Z,0.00
2019-03-29T04:00:56.508Z,0.00
2019-03-29T04:01:56.367Z,0.00
2019-03-29T04:02:56.359Z,0.00
2019-03-29T04:03:56.348Z,0.00
2019-03-29T04:04:56.366Z,0.00
2019-03-29T04:05:56.331Z,0.00
2019-03-29T04:06:56.324Z,0.00
2019-03-29T04:07:56.305Z,0.00
2019-03-29T04:08:56.297Z,0.00
2019-03-29T04:09:56.309Z,0.00
2019-03-29T04:10:56.275Z,0.00
2019-03-29T04:11:56.260Z,0.00
2019-03-29T04:12:56.249Z,0.00
2019-03-29T04:13:56.238Z,0.00
2019-03-29T04:14:56.266Z,0.00
2019-03-29T04:15:56.220Z,0.00
2019-03-29T04:16:56.220Z,0.00
2019-03-29T04:17:56.200Z,0.00
2019-03-29T04:18:56.184Z,0.00
2019-03-29T04:19:56.198Z,0.00
2019-03-29T04:20:56.167Z,0.00
2019-03-29T04:21:56.155Z,0.00
2019-03-29T04:22:56.142Z,0.00
2019-03-29T04:23:56.131Z,0.00
2019-03-29T04:24:56.159Z,0.00
2019-03-29T04:25:56.116Z,0.00
2019-03-29T04:26:56.098Z,0.00
2019-03-29T04:27:56.090Z,0.00
2019-03-29T04:29:04.172Z,0.00
2019-03-29T04:29:57.389Z,0.00
2019-03-29T04:30:56.084Z,0.00
2019-03-29T04:31:56.051Z,0.00
2019-03-29T04:32:56.045Z,0.00
2019-03-29T04:33:56.024Z,0.00
2019-03-29T04:34:56.010Z,0.00
2019-03-29T04:35:56.023Z,0.00
2019-03-29T04:36:55.997Z,0.00
2019-03-29T04:37:55.980Z,0.00
2019-03-29T04:38:55.967Z,0.00
2019-03-29T04:40:06.779Z,0.00
2019-03-29T04:40:56.974Z,0.00
2019-03-29T04:41:55.941Z,0.00
2019-03-29T04:42:55.934Z,0.00
2019-03-29T04:43:55.911Z,0.00
2019-03-29T04:44:59.655Z,0.00
2019-03-29T04:45:55.916Z,0.00
2019-03-29T04:46:55.883Z,0.00
2019-03-29T04:47:55.875Z,0.00
2019-03-29T04:48:55.857Z,0.00
2019-03-29T04:49:55.855Z,0.00
2019-03-29T04:50:55.903Z,0.00
2019-03-29T04:51:55.830Z,0.00
2019-03-29T04:52:55.815Z,0.00
2019-03-29T04:53:55.806Z,0.00
2019-03-29T04:54:55.795Z,0.00
2019-03-29T04:55:55.810Z,0.00
2019-03-29T04:56:55.774Z,0.00
2019-03-29T04:57:55.763Z,0.00
2019-03-29T04:58:55.746Z,0.00
2019-03-29T04:59:55.736Z,0.00
2019-03-29T05:00:55.749Z,0.00
2019-03-29T05:01:55.718Z,0.00
2019-03-29T05:02:55.708Z,0.00
2019-03-29T05:03:55.695Z,0.00
2019-03-29T05:04:55.683Z,0.00
2019-03-29T05:05:55.705Z,0.00
2019-03-29T05:06:55.662Z,5.62
2019-03-29T05:07:55.653Z,5.62
2019-03-29T05:08:55.640Z,5.62
2019-03-29T05:09:55.626Z,5.62
2019-03-29T05:10:55.644Z,5.62
2019-03-29T05:11:55.606Z,5.62
2019-03-29T05:12:55.596Z,11.25
2019-03-29T05:13:55.592Z,11.25
2019-03-29T05:14:55.571Z,11.25
2019-03-29T05:15:55.597Z,11.25
2019-03-29T05:16:55.554Z,16.88
2019-03-29T05:17:55.546Z,16.88
2019-03-29T05:18:55.610Z,16.88
2019-03-29T05:19:55.520Z,16.88
2019-03-29T05:20:55.510Z,22.50
2019-03-29T05:21:55.525Z,22.50
2019-03-29T05:22:55.488Z,22.50
2019-03-29T05:23:55.479Z,28.12
2019-03-29T05:24:55.463Z,28.12
2019-03-29T05:25:55.454Z,33.75
2019-03-29T05:26:55.465Z,33.75
2019-03-29T05:27:55.433Z,33.75
2019-03-29T05:28:55.421Z,39.38
2019-03-29T05:29:55.416Z,39.38
2019-03-29T05:30:55.398Z,45.00
2019-03-29T05:31:55.410Z,45.00
2019-03-29T05:32:55.382Z,50.62
2019-03-29T05:33:55.364Z,56.25
2019-03-29T05:34:55.353Z,56.25
2019-03-29T05:35:55.345Z,61.88
2019-03-29T05:36:58.333Z,61.88
2019-03-29T05:37:55.332Z,67.50
2019-03-29T05:38:55.313Z,67.50
2019-03-29T05:39:55.302Z,73.12
2019-03-29T05:40:55.291Z,73.12
2019-03-29T05:41:55.302Z,78.75
2019-03-29T05:42:55.266Z,78.75
2019-03-29T05:43:55.260Z,84.38
2019-03-29T05:44:55.245Z,84.38
2019-03-29T05:45:55.234Z,90.00
2019-03-29T05:46:55.249Z,90.00
2019-03-29T05:47:55.217Z,95.62
2019-03-29T05:48:55.228Z,95.62
2019-03-29T05:49:55.194Z,101.25
2019-03-29T05:50:55.178Z,101.25
2019-03-29T05:51:55.192Z,106.88
2019-03-29T05:52:55.166Z,106.88
2019-03-29T05:53:55.145Z,112.50
2019-03-29T05:54:55.139Z,112.50
2019-03-29T05:55:55.121Z,118.12
2019-03-29T05:56:55.150Z,118.12
2019-03-29T05:57:55.101Z,118.12
2019-03-29T05:58:55.088Z,123.75
2019-03-29T05:59:55.080Z,123.75
2019-03-29T06:00:55.072Z,129.38
2019-03-29T06:01:55.058Z,129.38
2019-03-29T06:02:55.072Z,135.00
2019-03-29T06:03:55.036Z,135.00
2019-03-29T06:04:55.023Z,140.62
2019-03-29T06:05:55.012Z,140.62
2019-03-29T06:06:55.001Z,140.62
2019-03-29T06:07:55.012Z,140.62
2019-03-29T06:08:54.978Z,146.25
2019-03-29T06:09:55.039Z,146.25
2019-03-29T06:10:54.957Z,151.88
2019-03-29T06:11:54.946Z,151.88
2019-03-29T06:12:54.958Z,157.50
2019-03-29T06:13:54.922Z,157.50
2019-03-29T06:14:54.911Z,163.12
2019-03-29T06:15:54.900Z,163.12
2019-03-29T06:16:54.892Z,168.75
2019-03-29T06:17:54.918Z,168.75
2019-03-29T06:18:54.867Z,168.75
2019-03-29T06:19:54.857Z,174.38
2019-03-29T06:20:54.846Z,174.38
2019-03-29T06:21:54.858Z,180.00
2019-03-29T06:22:54.851Z,180.00
2019-03-29T06:23:54.810Z,180.00
2019-03-29T06:24:54.799Z,185.62
2019-03-29T06:25:54.790Z,185.62
2019-03-29T06:26:54.792Z,185.62
2019-03-29T06:27:54.790Z,191.25
2019-03-29T06:28:54.768Z,191.25
2019-03-29T06:29:54.743Z,191.25
2019-03-29T06:30:54.733Z,196.88
2019-03-29T06:31:54.724Z,196.88
2019-03-29T06:32:54.733Z,196.88
2019-03-29T06:33:54.698Z,196.88
2019-03-29T06:34:54.685Z,202.50
2019-03-29T06:35:54.696Z,202.50
2019-03-29T06:36:54.666Z,202.50
2019-03-29T06:37:54.684Z,208.12
2019-03-29T06:38:54.642Z,208.12
2019-03-29T06:39:54.634Z,208.12
2019-03-29T06:41:02.654Z,208.12
2019-03-29T06:41:55.613Z,213.75
2019-03-29T06:42:54.646Z,213.75
2019-03-29T06:43:54.629Z,213.75
2019-03-29T06:44:54.592Z,219.38
2019-03-29T06:45:54.569Z,219.38
2019-03-29T06:46:54.613Z,219.38
2019-03-29T06:47:54.582Z,225.00
2019-03-29T06:48:54.540Z,225.00
2019-03-29T06:49:54.533Z,225.00
2019-03-29T06:50:54.553Z,225.00
2019-03-29T06:51:54.522Z,230.62
2019-03-29T06:52:54.524Z,230.62
2019-03-29T06:53:54.479Z,230.62
2019-03-29T06:54:54.472Z,230.62
2019-03-29T06:55:54.476Z,236.25
2019-03-29T06:56:54.452Z,236.25
2019-03-29T06:57:54.435Z,236.25
2019-03-29T06:58:54.443Z,236.25
2019-03-29T06:59:54.411Z,241.88
2019-03-29T07:00:54.401Z,241.88
2019-03-29T07:01:54.386Z,241.88
2019-03-29T07:02:54.391Z,241.88
2019-03-29T07:03:54.385Z,241.88
2019-03-29T07:04:54.361Z,247.50
2019-03-29T07:05:54.345Z,247.50
2019-03-29T07:06:54.349Z,247.50
2019-03-29T07:07:54.323Z,247.50
2019-03-29T07:08:54.345Z,247.50
2019-03-29T07:09:54.308Z,247.50
2019-03-29T07:10:54.426Z,247.50
2019-03-29T07:11:54.283Z,253.12
2019-03-29T07:12:56.404Z,253.12
2019-03-29T07:13:57.662Z,253.12
2019-03-29T07:14:54.255Z,253.12
2019-03-29T07:15:54.250Z,253.12
2019-03-29T07:16:54.227Z,253.12
2019-03-29T07:17:54.215Z,253.12
2019-03-29T07:18:54.231Z,253.12
2019-03-29T07:19:54.198Z,253.12
2019-03-29T07:20:54.188Z,258.75
2019-03-29T07:21:54.172Z,258.75
2019-03-29T07:22:54.167Z,258.75
2019-03-29T07:23:54.174Z,258.75
2019-03-29T07:24:54.137Z,258.75
2019-03-29T07:25:56.376Z,258.75
2019-03-29T07:26:54.120Z,258.75
2019-03-29T07:27:54.103Z,258.75
2019-03-29T07:28:54.115Z,258.75
2019-03-29T07:29:54.087Z,258.75
2019-03-29T07:30:54.078Z,264.38
2019-03-29T07:31:54.058Z,264.38
2019-03-29T07:32:54.049Z,264.38
2019-03-29T07:33:54.067Z,264.38
2019-03-29T07:34:54.027Z,264.38
2019-03-29T07:35:54.015Z,264.38
2019-03-29T07:36:54.023Z,264.38
2019-03-29T07:37:54.001Z,264.38
2019-03-29T07:38:54.021Z,264.38
2019-03-29T07:39:54.146Z,264.38
2019-03-29T07:40:53.962Z,270.00
2019-03-29T07:41:53.963Z,270.00
2019-03-29T07:42:53.946Z,270.00
2019-03-29T07:43:53.931Z,270.00
2019-03-29T07:44:53.940Z,270.00
2019-03-29T07:45:53.910Z,270.00
2019-03-29T07:46:53.895Z,270.00
2019-03-29T07:47:53.886Z,270.00
2019-03-29T07:48:53.875Z,270.00
2019-03-29T07:49:53.885Z,270.00
2019-03-29T07:50:53.851Z,270.00
2019-03-29T07:51:53.881Z,270.00
2019-03-29T07:52:53.833Z,270.00
2019-03-29T07:53:53.820Z,270.00
2019-03-29T07:54:53.834Z,275.62
2019-03-29T07:55:53.799Z,275.62
2019-03-29T07:56:53.806Z,275.62
2019-03-29T07:57:53.775Z,275.62
2019-03-29T07:58:53.782Z,275.62
2019-03-29T07:59:53.778Z,275.62
2019-03-29T08:00:53.745Z,275.62
2019-03-29T08:01:53.757Z,275.62
2019-03-29T08:02:55.187Z,275.62
2019-03-29T08:03:53.726Z,275.62
2019-03-29T08:04:53.741Z,275.62
2019-03-29T08:05:53.693Z,275.62
2019-03-29T08:06:53.694Z,275.62
2019-03-29T08:07:53.687Z,275.62
2019-03-29T08:08:53.677Z,275.62
2019-03-29T08:09:54.256Z,281.25
2019-03-29T08:10:54.211Z,281.25
2019-03-29T08:11:55.140Z,281.25
2019-03-29T08:12:53.692Z,281.25
2019-03-29T08:13:53.605Z,281.25
2019-03-29T08:14:53.621Z,281.25
2019-03-29T08:15:53.590Z,281.25
2019-03-29T08:16:53.667Z,281.25
2019-03-29T08:17:53.565Z,281.25
2019-03-29T08:18:53.551Z,281.25
2019-03-29T08:20:24.398Z,281.25
2019-03-29T08:20:54.524Z,281.25
2019-03-29T08:21:53.515Z,281.25
2019-03-29T08:22:53.539Z,281.25
2019-03-29T08:23:53.499Z,281.25
2019-03-29T08:24:53.509Z,281.25
2019-03-29T08:25:53.477Z,281.25
2019-03-29T08:26:53.470Z,281.25
2019-03-29T08:27:53.449Z,281.25
2019-03-29T08:28:53.440Z,281.25
2019-03-29T08:29:53.457Z,286.88
2019-03-29T08:30:53.416Z,286.88
2019-03-29T08:31:55.454Z,286.88
2019-03-29T08:32:53.395Z,286.88
2019-03-29T08:33:53.408Z,286.88
2019-03-29T08:34:53.400Z,286.88
2019-03-29T08:35:53.372Z,286.88
2019-03-29T08:36:53.360Z,286.88
2019-03-29T08:37:53.343Z,286.88
2019-03-29T08:38:53.337Z,286.88
2019-03-29T08:39:56.330Z,286.88
2019-03-29T08:40:53.319Z,286.88
2019-03-29T08:42:00.065Z,286.88
2019-03-29T08:42:54.295Z,286.88
2019-03-29T08:43:53.279Z,286.88
2019-03-29T08:44:53.265Z,286.88
2019-03-29T08:45:53.279Z,286.88
2019-03-29T08:46:53.244Z,286.88
2019-03-29T08:47:53.239Z,286.88
2019-03-29T08:48:53.243Z,286.88
2019-03-29T08:49:53.216Z,286.88
2019-03-29T08:50:53.244Z,286.88
2019-03-29T08:51:53.214Z,286.88
2019-03-29T08:52:53.179Z,292.50
2019-03-29T08:53:53.169Z,286.88
2019-03-29T08:54:53.190Z,286.88
2019-03-29T08:55:53.196Z,298.12
2019-03-29T08:56:53.150Z,286.88
2019-03-29T08:57:53.127Z,286.88
2019-03-29T08:58:53.173Z,286.88
2019-03-29T08:59:53.123Z,292.50
2019-03-29T09:00:53.117Z,292.50
2019-03-29T09:01:53.120Z,292.50
2019-03-29T09:02:53.074Z,292.50
2019-03-29T09:04:04.738Z,292.50
2019-03-29T09:04:54.079Z,292.50
2019-03-29T09:05:53.084Z,292.50
2019-03-29T09:06:54.170Z,292.50
2019-03-29T09:07:53.020Z,292.50
2019-03-29T09:08:53.045Z,292.50
2019-03-29T09:09:53.050Z,292.50
2019-03-29T09:10:53.011Z,292.50
2019-03-29T09:11:52.990Z,292.50
2019-03-29T09:12:53.002Z,292.50
2019-03-29T09:13:52.952Z,292.50
2019-03-29T09:14:52.944Z,292.50
2019-03-29T09:15:52.955Z,292.50
2019-03-29T09:16:52.924Z,292.50
2019-03-29T09:17:52.908Z,292.50
2019-03-29T09:18:52.910Z,298.12
2019-03-29T09:19:52.920Z,298.12
2019-03-29T09:20:52.901Z,292.50
2019-03-29T09:21:52.868Z,298.12
2019-03-29T09:22:52.904Z,298.12
2019-03-29T09:23:52.846Z,298.12
2019-03-29T09:24:52.836Z,298.12
2019-03-29T09:25:52.846Z,298.12
2019-03-29T09:26:52.839Z,298.12
2019-03-29T09:27:52.827Z,298.12
2019-03-29T09:28:52.807Z,298.12
2019-03-29T09:29:52.779Z,298.12
2019-03-29T09:30:56.205Z,298.12
2019-03-29T09:31:52.769Z,298.12
2019-03-29T09:32:52.749Z,298.12
2019-03-29T09:33:52.751Z,298.12
2019-03-29T09:34:52.725Z,298.12
2019-03-29T09:35:52.746Z,298.12
2019-03-29T09:36:52.703Z,298.12
2019-03-29T09:37:55.021Z,298.12
2019-03-29T09:38:52.680Z,298.12
2019-03-29T09:39:52.683Z,298.12
2019-03-29T09:40:58.841Z,303.75
2019-03-29T09:41:53.647Z,298.12
2019-03-29T09:43:06.818Z,298.12
2019-03-29T09:43:54.503Z,298.12
2019-03-29T09:44:52.618Z,298.12
2019-03-29T09:45:52.852Z,303.75
2019-03-29T09:46:52.618Z,303.75
2019-03-29T09:47:55.749Z,303.75
2019-03-29T09:48:52.593Z,303.75
2019-03-29T09:49:52.562Z,303.75
2019-03-29T09:50:52.550Z,303.75
2019-03-29T09:51:52.564Z,303.75
2019-03-29T09:52:52.530Z,241.88
2019-03-29T09:53:52.547Z,298.12
2019-03-29T09:54:53.991Z,303.75
2019-03-29T09:55:53.536Z,309.38
2019-03-29T09:56:52.534Z,315.00
2019-03-29T09:57:52.504Z,309.38
2019-03-29T09:58:52.469Z,315.00
2019-03-29T09:59:52.451Z,315.00
2019-03-29T10:00:52.495Z,281.25
2019-03-29T10:01:54.270Z,281.25
2019-03-29T10:02:52.441Z,281.25
2019-03-29T10:03:52.428Z,309.38
2019-03-29T10:04:52.398Z,320.62
2019-03-29T10:05:52.387Z,303.75
2019-03-29T10:06:52.452Z,292.50
2019-03-29T10:07:52.364Z,320.62
2019-03-29T10:08:53.493Z,320.62
2019-03-29T10:09:52.345Z,326.25
2019-03-29T10:10:52.341Z,315.00
2019-03-29T10:11:52.345Z,275.62
2019-03-29T10:12:52.324Z,320.62
2019-03-29T10:13:52.301Z,337.50
2019-03-29T10:14:52.292Z,354.38
2019-03-29T10:15:52.291Z,360.00
2019-03-29T10:16:52.295Z,360.00
2019-03-29T10:17:52.275Z,360.00
2019-03-29T10:18:52.286Z,360.00
2019-03-29T10:19:52.464Z,354.38
2019-03-29T10:20:52.245Z,343.12
2019-03-29T10:21:52.237Z,331.88
2019-03-29T10:22:52.220Z,326.25
2019-03-29T10:23:52.191Z,326.25
2019-03-29T10:24:52.185Z,292.50
2019-03-29T10:25:52.170Z,326.25
2019-03-29T10:26:52.184Z,275.62
2019-03-29T10:27:52.149Z,303.75
2019-03-29T10:28:52.150Z,326.25
2019-03-29T10:29:52.130Z,331.88
2019-03-29T10:30:52.132Z,331.88
2019-03-29T10:31:52.170Z,326.25
2019-03-29T10:32:55.290Z,331.88
2019-03-29T10:33:52.096Z,331.88
2019-03-29T10:34:52.074Z,337.50
2019-03-29T10:35:53.076Z,337.50
2019-03-29T10:36:52.098Z,303.75
2019-03-29T10:37:52.044Z,320.62
2019-03-29T10:38:52.058Z,343.12
2019-03-29T10:39:52.023Z,348.75
2019-03-29T10:40:52.007Z,354.38
2019-03-29T10:41:51.997Z,360.00
2019-03-29T10:42:58.027Z,354.38
2019-03-29T10:43:52.990Z,343.12
2019-03-29T10:44:51.968Z,399.38
2019-03-29T10:45:52.036Z,399.38
2019-03-29T10:46:52.004Z,399.38
2019-03-29T10:47:51.957Z,399.38
2019-03-29T10:48:51.934Z,337.50
2019-03-29T10:49:51.916Z,337.50
2019-03-29T10:50:51.900Z,337.50
2019-03-29T10:51:51.889Z,416.25
2019-03-29T10:52:51.901Z,393.75
2019-03-29T10:53:51.866Z,382.50
2019-03-29T10:54:51.859Z,371.25
2019-03-29T10:55:51.860Z,337.50
2019-03-29T10:56:51.862Z,337.50
2019-03-29T10:57:51.847Z,405.00
2019-03-29T10:58:51.832Z,421.88
2019-03-29T10:59:51.803Z,365.62
2019-03-29T11:00:51.792Z,421.88
2019-03-29T11:01:51.781Z,354.38
2019-03-29T11:02:51.839Z,360.00
2019-03-29T11:03:51.761Z,354.38
2019-03-29T11:04:51.758Z,365.62
2019-03-29T11:05:51.761Z,371.25
2019-03-29T11:06:51.755Z,376.88
2019-03-29T11:07:51.740Z,455.62
2019-03-29T11:08:51.710Z,455.62
2019-03-29T11:09:51.696Z,466.88
2019-03-29T11:10:51.682Z,455.62
2019-03-29T11:11:51.679Z,455.62
2019-03-29T11:12:51.713Z,455.62
2019-03-29T11:13:51.652Z,455.62
2019-03-29T11:14:51.639Z,444.38
2019-03-29T11:15:51.634Z,438.75
2019-03-29T11:16:51.721Z,433.12
2019-03-29T11:17:51.638Z,433.12
2019-03-29T11:18:51.612Z,433.12
2019-03-29T11:19:51.844Z,433.12
2019-03-29T11:20:51.635Z,433.12
2019-03-29T11:21:51.599Z,421.88
2019-03-29T11:22:51.611Z,421.88
2019-03-29T11:23:51.550Z,421.88
2019-03-29T11:24:51.533Z,421.88
2019-03-29T11:25:51.545Z,421.88
2019-03-29T11:26:51.513Z,421.88
2019-03-29T11:27:51.604Z,376.88
2019-03-29T11:28:51.491Z,416.25
2019-03-29T11:29:51.522Z,438.75
2019-03-29T11:30:51.465Z,433.12
2019-03-29T11:31:51.493Z,416.25
2019-03-29T11:32:51.478Z,421.88
2019-03-29T11:33:51.435Z,421.88
2019-03-29T11:34:51.434Z,421.88
2019-03-29T11:35:51.499Z,427.50
2019-03-29T11:36:52.725Z,421.88
2019-03-29T11:37:51.424Z,382.50
2019-03-29T11:38:52.379Z,416.25
2019-03-29T11:39:51.383Z,416.25
2019-03-29T11:40:51.363Z,416.25
2019-03-29T11:41:51.355Z,343.12
2019-03-29T11:42:51.384Z,405.00
2019-03-29T11:43:51.329Z,421.88
2019-03-29T11:44:51.314Z,427.50
2019-03-29T11:45:51.321Z,433.12
2019-03-29T11:46:51.319Z,427.50
2019-03-29T11:47:51.334Z,427.50
2019-03-29T11:48:51.271Z,433.12
2019-03-29T11:49:52.744Z,433.12
2019-03-29T11:50:51.269Z,450.00
2019-03-29T11:51:51.239Z,466.88
2019-03-29T11:52:51.238Z,466.88
2019-03-29T11:53:51.562Z,416.25
2019-03-29T11:54:51.219Z,483.75
2019-03-29T11:55:51.195Z,495.00
2019-03-29T11:56:51.191Z,472.50
2019-03-29T11:57:51.184Z,450.00
2019-03-29T11:58:51.204Z,438.75
2019-03-29T11:59:51.152Z,472.50
2019-03-29T12:00:51.156Z,495.00
2019-03-29T12:01:51.137Z,466.88
2019-03-29T12:02:51.122Z,466.88
2019-03-29T12:03:51.211Z,461.25
2019-03-29T12:04:51.102Z,489.38
2019-03-29T12:05:51.095Z,466.88
2019-03-29T12:06:51.080Z,523.12
2019-03-29T12:07:51.123Z,478.12
2019-03-29T12:08:51.079Z,472.50
2019-03-29T12:09:51.053Z,495.00
2019-03-29T12:10:51.068Z,489.38
2019-03-29T12:11:51.034Z,489.38
2019-03-29T12:12:51.011Z,500.62
2019-03-29T12:13:51.039Z,511.88
2019-03-29T12:14:50.989Z,523.12
2019-03-29T12:15:50.997Z,545.62
2019-03-29T12:16:50.982Z,551.25
2019-03-29T12:17:50.959Z,562.50
2019-03-29T12:18:50.974Z,568.12
2019-03-29T12:19:50.942Z,568.12
2019-03-29T12:20:54.161Z,573.75
2019-03-29T12:21:50.913Z,585.00
2019-03-29T12:22:50.903Z,601.88
2019-03-29T12:23:50.918Z,607.50
2019-03-29T12:24:50.881Z,607.50
2019-03-29T12:25:50.873Z,601.88
2019-03-29T12:26:50.859Z,596.25
2019-03-29T12:27:50.847Z,579.38
2019-03-29T12:28:50.859Z,573.75
2019-03-29T12:29:50.825Z,579.38
2019-03-29T12:30:50.820Z,568.12
2019-03-29T12:31:50.804Z,568.12
2019-03-29T12:32:50.794Z,568.12
2019-03-29T12:33:50.805Z,556.88
2019-03-29T12:34:50.771Z,551.25
2019-03-29T12:35:50.762Z,556.88
2019-03-29T12:36:50.756Z,562.50
2019-03-29T12:37:50.742Z,568.12
2019-03-29T12:38:50.759Z,579.38
2019-03-29T12:39:50.731Z,590.62
2019-03-29T12:40:50.706Z,613.12
2019-03-29T12:41:50.703Z,630.00
2019-03-29T12:42:50.683Z,596.25
2019-03-29T12:43:55.779Z,573.75
2019-03-29T12:44:51.662Z,579.38
2019-03-29T12:45:50.652Z,658.12
2019-03-29T12:46:50.642Z,646.88
2019-03-29T12:47:50.636Z,635.62
2019-03-29T12:48:50.687Z,630.00
2019-03-29T12:49:50.609Z,523.12